Time;durP1;ratioP1;P1;durP2;ratioP2;P2;SDS_P1;SDS_P2;PMS_P1;PMS_P2;Temp;Humidity;BMP_temperature;BMP_pressure;BME280_temperature;BME280_humidity;BME280_pressure;Samples;Min_cycle;Max_cycle;Signal;HPM_P1;HPM_P2
2023/09/02 00:00:36;;;;;;;5.90;1.60;;;17.10;1.00;;;;;;5031365;28;20398;-74
2023/09/02 00:03:01;;;;;;;6.28;1.65;;;17.10;1.00;;;;;;5049913;28;20426;-74
2023/09/02 00:05:27;;;;;;;5.10;1.60;;;17.00;1.00;;;;;;5038985;28;20489;-74
2023/09/02 00:07:52;;;;;;;5.60;1.80;;;17.00;1.00;;;;;;5030249;28;20506;-74
2023/09/02 00:10:18;;;;;;;6.23;1.80;;;17.00;1.00;;;;;;5029277;28;20485;-74
2023/09/02 00:12:43;;;;;;;5.00;1.48;;;17.00;1.00;;;;;;5028464;28;20907;-74
2023/09/02 00:15:09;;;;;;;5.30;1.63;;;17.00;1.00;;;;;;5029007;28;20883;-74
2023/09/02 00:17:35;;;;;;;5.05;1.30;;;16.90;1.00;;;;;;5028588;28;20387;-74
2023/09/02 00:20:05;;;;;;;5.32;1.70;;;17.10;1.00;;;;;;5031161;28;20938;-74
2023/09/02 00:22:32;;;;;;;5.35;1.70;;;17.20;1.00;;;;;;5031697;28;20425;-74
2023/09/02 00:24:58;;;;;;;5.10;1.30;;;17.20;1.00;;;;;;5032432;28;20395;-74
2023/09/02 00:27:23;;;;;;;6.10;1.80;;;17.20;1.00;;;;;;5032205;28;20379;-74
2023/09/02 00:29:49;;;;;;;6.63;1.60;;;17.00;1.00;;;;;;5032716;28;20430;-74
2023/09/02 00:32:14;;;;;;;10.47;1.83;;;17.10;1.00;;;;;;5032758;28;20770;-74
2023/09/02 00:34:40;;;;;;;6.63;1.50;;;17.10;1.00;;;;;;5031559;28;20423;-74
2023/09/02 00:37:06;;;;;;;4.80;1.37;;;17.10;1.00;;;;;;5031642;28;20474;-74
2023/09/02 00:39:31;;;;;;;6.25;2.03;;;17.10;1.00;;;;;;5031717;28;20419;-74
2023/09/02 00:41:58;;;;;;;7.30;1.70;;;17.00;1.00;;;;;;5031341;28;20391;-74
2023/09/02 00:44:25;;;;;;;6.00;1.95;;;17.00;1.00;;;;;;5031544;28;20398;-74
2023/09/02 00:46:51;;;;;;;6.88;1.92;;;17.00;1.00;;;;;;5032009;28;20391;-74
2023/09/02 00:49:17;;;;;;;5.72;1.90;;;16.90;1.00;;;;;;5031079;28;20411;-74
2023/09/02 00:51:43;;;;;;;4.90;1.50;;;16.70;1.00;;;;;;5031350;28;20440;-74
2023/09/02 00:54:08;;;;;;;5.43;1.50;;;16.60;20.00;;;;;;5013546;28;20402;-74
2023/09/02 00:56:35;;;;;;;4.90;1.30;;;16.60;33.90;;;;;;5031122;28;20399;-74
2023/09/02 00:59:03;;;;;;;5.50;1.70;;;16.70;25.90;;;;;;5031184;28;20391;-74
2023/09/02 01:01:31;;;;;;;8.02;2.08;;;16.60;34.50;;;;;;5031280;28;20383;-74
2023/09/02 01:03:57;;;;;;;5.70;1.90;;;16.60;43.80;;;;;;5030447;28;20928;-74
2023/09/02 01:06:23;;;;;;;5.77;1.73;;;16.70;39.60;;;;;;5031733;28;20390;-74
2023/09/02 01:08:48;;;;;;;6.00;1.83;;;16.80;20.00;;;;;;5031485;28;20931;-74
2023/09/02 01:11:14;;;;;;;4.95;1.48;;;16.80;9.80;;;;;;5031210;28;20402;-74
2023/09/02 01:13:39;;;;;;;11.85;1.60;;;16.80;2.20;;;;;;5031041;28;20522;-74
2023/09/02 01:16:05;;;;;;;5.90;1.60;;;16.70;9.50;;;;;;5030805;28;20421;-74
2023/09/02 01:18:33;;;;;;;6.50;1.90;;;16.70;8.50;;;;;;5030589;28;20803;-74
2023/09/02 01:21:22;;;;;;;5.45;1.73;;;16.70;8.00;;;;;;5030631;28;20418;-74
2023/09/02 01:24:18;;;;;;;5.90;1.90;;;16.70;16.10;;;;;;5031315;28;20419;-74
2023/09/02 01:27:21;;;;;;;6.88;1.38;;;16.80;13.50;;;;;;5012743;28;20406;-74
2023/09/02 01:30:01;;;;;;;5.50;1.40;;;16.80;1.00;;;;;;5030666;28;20445;-74
2023/09/02 01:32:32;;;;;;;7.60;1.33;;;16.80;1.00;;;;;;5030342;28;20727;-74
2023/09/02 01:35:02;;;;;;;5.82;1.60;;;16.80;1.00;;;;;;5030973;28;20429;-74
2023/09/02 01:37:28;;;;;;;6.20;1.50;;;16.60;1.00;;;;;;5030576;28;20395;-74
2023/09/02 01:39:55;;;;;;;5.57;1.95;;;16.60;15.70;;;;;;5030632;28;20422;-74
2023/09/02 01:42:21;;;;;;;5.10;1.55;;;16.70;2.30;;;;;;5031649;28;20902;-74
2023/09/02 01:44:47;;;;;;;5.40;1.60;;;16.70;2.30;;;;;;5030688;28;20875;-74
2023/09/02 01:47:15;;;;;;;5.10;1.50;;;16.80;1.00;;;;;;5030479;28;21556;-74
2023/09/02 01:49:41;;;;;;;5.57;1.50;;;16.60;1.00;;;;;;5030920;28;20443;-74
2023/09/02 01:52:06;;;;;;;7.10;2.08;;;16.60;1.00;;;;;;5030820;28;20395;-74
2023/09/02 01:54:32;;;;;;;6.68;1.70;;;16.60;1.00;;;;;;5030602;28;20466;-74
2023/09/02 01:56:58;;;;;;;5.32;1.80;;;16.50;1.00;;;;;;5030587;28;20490;-74
2023/09/02 01:59:23;;;;;;;6.40;1.80;;;16.50;1.00;;;;;;5030610;28;20391;-74
2023/09/02 02:01:49;;;;;;;6.57;1.70;;;16.30;1.70;;;;;;5030620;28;20747;-74
2023/09/02 02:04:29;;;;;;;5.60;1.65;;;16.30;6.90;;;;;;5030186;28;20444;-74
2023/09/02 02:07:00;;;;;;;6.40;1.70;;;16.30;9.80;;;;;;5030011;28;20402;-74
2023/09/02 02:09:51;;;;;;;5.45;1.60;;;16.40;18.90;;;;;;5030312;28;20387;-74
2023/09/02 02:12:18;;;;;;;5.60;1.50;;;16.40;1.00;;;;;;5030521;28;20394;-74
2023/09/02 02:14:47;;;;;;;5.30;1.50;;;16.30;10.30;;;;;;5029910;28;20403;-74
2023/09/02 02:17:13;;;;;;;6.47;2.00;;;16.40;14.50;;;;;;5028689;28;20926;-74
2023/09/02 02:19:40;;;;;;;5.20;1.38;;;16.30;16.70;;;;;;5029960;28;20419;-74
2023/09/02 02:22:05;;;;;;;6.25;1.30;;;16.30;27.70;;;;;;5029832;28;20813;-74
2023/09/02 02:24:31;;;;;;;6.23;2.00;;;16.30;47.40;;;;;;5030134;28;20419;-74
2023/09/02 02:26:57;;;;;;;5.10;1.67;;;16.40;50.80;;;;;;5029443;28;20395;-74
2023/09/02 02:29:22;;;;;;;7.90;2.00;;;16.50;60.00;;;;;;5030345;28;20376;-74
2023/09/02 02:31:48;;;;;;;6.27;2.00;;;16.40;57.20;;;;;;5029634;28;20487;-74
2023/09/02 02:34:15;;;;;;;5.50;1.33;;;16.30;52.70;;;;;;5030238;28;20371;-74
2023/09/02 02:36:41;;;;;;;5.60;1.80;;;16.40;53.30;;;;;;5029362;28;20858;-74
2023/09/02 02:39:07;;;;;;;5.70;1.50;;;16.50;37.10;;;;;;5029101;28;20411;-74
2023/09/02 02:41:33;;;;;;;5.40;1.60;;;16.40;23.30;;;;;;5011216;28;20952;-74
2023/09/02 02:43:59;;;;;;;5.70;1.70;;;16.40;25.50;;;;;;5029058;28;20489;-74
2023/09/02 02:46:25;;;;;;;6.55;2.10;;;16.30;4.70;;;;;;5029247;28;20895;-74
2023/09/02 02:48:50;;;;;;;6.90;1.97;;;16.30;25.40;;;;;;5030255;28;20383;-74
2023/09/02 02:51:16;;;;;;;7.97;2.08;;;16.20;44.80;;;;;;5030234;28;20810;-74
2023/09/02 02:53:41;;;;;;;7.32;2.42;;;16.10;53.20;;;;;;5029641;28;20395;-74
2023/09/02 02:56:07;;;;;;;8.03;2.10;;;16.10;96.10;;;;;;5029708;28;20397;-74
2023/09/02 02:58:32;;;;;;;6.37;2.10;;;16.10;99.10;;;;;;5029311;28;20418;-74
2023/09/02 03:01:05;;;;;;;5.70;2.10;;;16.10;95.50;;;;;;5029774;28;20392;-74
2023/09/02 03:03:34;;;;;;;7.68;2.50;;;16.10;88.60;;;;;;5029693;28;20958;-74
2023/09/02 03:06:00;;;;;;;8.95;2.60;;;16.10;96.20;;;;;;5029849;28;20402;-74
2023/09/02 03:08:26;;;;;;;6.82;1.85;;;16.00;99.90;;;;;;5030796;28;20398;-74
2023/09/02 03:11:00;;;;;;;5.70;2.03;;;15.80;99.90;;;;;;5030892;28;20470;-74
2023/09/02 03:13:25;;;;;;;6.80;2.08;;;15.80;99.90;;;;;;5030925;28;20489;-73
2023/09/02 03:15:53;;;;;;;6.60;2.47;;;15.70;99.90;;;;;;5031202;28;20787;-74
2023/09/02 03:18:19;;;;;;;7.00;2.50;;;15.80;99.90;;;;;;5031933;28;20395;-74
2023/09/02 03:20:45;;;;;;;6.18;2.00;;;16.00;99.90;;;;;;5013575;28;20395;-74
2023/09/02 03:23:10;;;;;;;6.10;2.10;;;16.00;99.90;;;;;;5030776;28;20753;-74
2023/09/02 03:25:37;;;;;;;6.05;1.80;;;16.10;99.90;;;;;;5029227;28;20437;-74
2023/09/02 03:28:03;;;;;;;9.30;3.30;;;16.10;99.90;;;;;;5028624;28;20382;-73
2023/09/02 03:30:29;;;;;;;6.85;2.08;;;16.10;99.90;;;;;;5028879;28;20379;-74
2023/09/02 03:32:54;;;;;;;10.10;2.37;;;16.10;99.90;;;;;;5028797;28;20402;-74
2023/09/02 03:35:20;;;;;;;6.40;2.07;;;16.20;99.90;;;;;;5029174;28;20403;-74
2023/09/02 03:37:46;;;;;;;6.05;2.10;;;16.10;99.90;;;;;;5028810;28;20394;-74
2023/09/02 03:40:11;;;;;;;6.50;2.13;;;16.10;99.90;;;;;;5028739;28;20411;-73
2023/09/02 03:42:37;;;;;;;6.60;2.50;;;16.10;99.90;;;;;;5028701;28;20962;-74
2023/09/02 03:45:03;;;;;;;6.32;1.80;;;16.00;99.90;;;;;;5028642;28;20391;-74
2023/09/02 03:47:32;;;;;;;6.20;1.80;;;15.90;99.90;;;;;;5028147;28;20905;-74
2023/09/02 03:50:02;;;;;;;7.13;2.30;;;15.90;99.90;;;;;;5028350;28;20950;-74
2023/09/02 03:52:28;;;;;;;6.00;2.30;;;15.90;99.90;;;;;;5028460;28;20387;-74
2023/09/02 03:54:54;;;;;;;5.80;2.00;;;15.90;99.90;;;;;;5032540;28;20387;-74
2023/09/02 03:57:19;;;;;;;8.27;1.97;;;15.90;99.90;;;;;;5033194;28;20433;-74
2023/09/02 03:59:44;;;;;;;8.27;2.53;;;15.90;99.90;;;;;;5032433;28;20720;-74
2023/09/02 04:02:10;;;;;;;7.40;2.50;;;16.00;99.90;;;;;;5032664;28;20399;-74
2023/09/02 04:04:36;;;;;;;5.50;1.77;;;16.00;99.90;;;;;;5032246;28;20401;-74
2023/09/02 04:07:01;;;;;;;6.30;1.93;;;16.00;99.90;;;;;;5033097;28;20398;-74
2023/09/02 04:09:27;;;;;;;6.13;2.47;;;15.90;99.90;;;;;;5033118;28;20403;-74
2023/09/02 04:11:53;;;;;;;7.85;2.20;;;15.90;99.90;;;;;;5032423;28;20383;-74
2023/09/02 04:14:18;;;;;;;6.40;2.00;;;15.90;99.90;;;;;;5033013;28;20875;-73
2023/09/02 04:16:44;;;;;;;6.60;2.37;;;15.90;99.90;;;;;;5032566;28;20466;-74
2023/09/02 04:19:09;;;;;;;6.55;2.15;;;15.90;99.90;;;;;;5032368;28;20477;-73
2023/09/02 04:21:35;;;;;;;6.20;2.13;;;16.00;99.90;;;;;;5032537;28;20395;-74
2023/09/02 04:24:00;;;;;;;6.40;2.00;;;15.80;99.90;;;;;;5014214;28;20494;-74
2023/09/02 04:26:26;;;;;;;6.17;2.07;;;15.70;99.90;;;;;;5031633;28;20387;-74
2023/09/02 04:28:55;;;;;;;8.70;1.90;;;15.80;99.90;;;;;;5032642;28;20497;-74
2023/09/02 04:31:21;;;;;;;6.30;2.00;;;15.80;99.90;;;;;;5014983;28;20426;-74
2023/09/02 04:33:46;;;;;;;7.05;2.30;;;15.80;99.90;;;;;;5032160;28;20418;-74
2023/09/02 04:36:12;;;;;;;5.57;2.10;;;15.70;99.90;;;;;;5031566;28;20391;-74
2023/09/02 04:38:37;;;;;;;7.40;2.50;;;15.70;99.90;;;;;;5032345;28;20457;-74
2023/09/02 04:41:06;;;;;;;6.13;2.30;;;15.80;99.90;;;;;;5032453;28;20399;-74
2023/09/02 04:43:33;;;;;;;7.40;2.35;;;15.80;99.90;;;;;;5031967;28;20940;-74
2023/09/02 04:46:02;;;;;;;7.43;2.40;;;15.80;99.90;;;;;;5032007;28;20398;-74
2023/09/02 04:48:28;;;;;;;5.43;2.08;;;15.80;99.90;;;;;;5031967;28;20895;-74
2023/09/02 04:50:54;;;;;;;6.78;2.20;;;15.90;99.90;;;;;;5032070;28;20395;-74
2023/09/02 04:53:20;;;;;;;7.18;2.30;;;15.80;99.90;;;;;;5032454;28;20379;-74
2023/09/02 04:55:47;;;;;;;5.75;2.20;;;15.90;99.90;;;;;;5031641;28;20399;-73
2023/09/02 04:58:12;;;;;;;5.80;2.20;;;15.90;99.90;;;;;;5031879;28;20435;-74
2023/09/02 05:00:38;;;;;;;6.57;2.17;;;15.90;99.90;;;;;;5030871;28;20422;-74
2023/09/02 05:03:04;;;;;;;8.05;2.10;;;15.90;99.90;;;;;;5031694;28;20457;-74
2023/09/02 05:05:31;;;;;;;5.40;2.00;;;16.10;99.90;;;;;;5030601;28;20379;-74
2023/09/02 05:07:58;;;;;;;7.75;2.53;;;16.20;99.90;;;;;;5031289;28;20461;-74
2023/09/02 05:10:23;;;;;;;6.10;2.30;;;16.20;99.90;;;;;;5034732;28;20407;-74
2023/09/02 05:12:49;;;;;;;6.70;2.20;;;16.10;99.90;;;;;;5038196;28;20390;-74
2023/09/02 05:15:14;;;;;;;5.90;2.00;;;16.20;99.90;;;;;;5038223;28;20402;-74
2023/09/02 05:17:40;;;;;;;8.00;2.73;;;16.30;99.90;;;;;;5035630;28;20403;-74
2023/09/02 05:20:06;;;;;;;5.90;2.10;;;16.40;99.90;;;;;;5032701;28;20395;-74
2023/09/02 05:22:33;;;;;;;9.43;2.53;;;16.30;99.90;;;;;;5031174;28;20512;-74
2023/09/02 05:24:59;;;;;;;7.40;2.80;;;16.40;99.90;;;;;;5030823;28;20391;-74
2023/09/02 05:27:26;;;;;;;7.45;2.50;;;16.50;99.90;;;;;;5031908;28;20706;-74
2023/09/02 05:29:52;;;;;;;8.60;3.05;;;16.70;99.90;;;;;;5032284;28;20417;-74
2023/09/02 05:32:17;;;;;;;7.77;2.20;;;16.80;99.90;;;;;;5031580;28;20383;-74
2023/09/02 05:34:43;;;;;;;8.97;3.40;;;16.80;95.10;;;;;;5031132;28;20491;-73
2023/09/02 05:37:09;;;;;;;8.82;2.30;;;16.70;99.90;;;;;;5031944;28;20486;-74
2023/09/02 05:39:34;;;;;;;6.00;2.07;;;16.70;99.90;;;;;;5030686;28;20502;-74
2023/09/02 05:42:00;;;;;;;8.60;2.77;;;16.70;99.90;;;;;;5030566;28;20395;-74
2023/09/02 05:44:25;;;;;;;6.57;2.67;;;16.80;99.90;;;;;;5030730;28;20502;-74
2023/09/02 05:46:51;;;;;;;9.00;2.72;;;16.70;99.90;;;;;;5013410;28;20402;-74
2023/09/02 05:49:17;;;;;;;7.95;2.72;;;16.80;99.90;;;;;;5030510;28;20399;-74
2023/09/02 05:51:43;;;;;;;6.77;2.70;;;16.80;99.90;;;;;;5030428;28;20395;-74
2023/09/02 05:54:09;;;;;;;7.95;3.10;;;16.80;99.90;;;;;;5029674;28;20395;-74
2023/09/02 05:56:42;;;;;;;8.55;2.67;;;16.90;99.90;;;;;;5031136;28;20403;-74
2023/09/02 05:59:07;;;;;;;6.35;2.67;;;17.00;99.90;;;;;;5031377;28;20387;-74
2023/09/02 06:01:33;;;;;;;7.50;2.30;;;17.30;99.90;;;;;;5030762;28;20911;-74
2023/09/02 06:03:58;;;;;;;6.60;2.60;;;17.60;99.90;;;;;;5022114;28;20430;-72
2023/09/02 06:06:24;;;;;;;7.93;2.93;;;18.40;99.90;;;;;;4992830;28;20457;-74
2023/09/02 06:08:50;;;;;;;6.30;2.22;;;19.60;1.00;;;;;;5025271;28;20437;-74
2023/09/02 06:11:16;;;;;;;6.60;2.40;;;20.60;1.00;;;;;;5010584;28;20463;-74
2023/09/02 06:13:43;;;;;;;6.78;2.50;;;21.50;99.90;;;;;;4992205;28;20420;-74
2023/09/02 06:16:08;;;;;;;6.10;2.10;;;22.30;1.00;;;;;;5010436;28;20804;-75
2023/09/02 06:18:35;;;;;;;6.50;2.70;;;23.20;99.90;;;;;;5010573;28;20393;-75
2023/09/02 06:21:12;;;;;;;6.30;1.90;;;24.00;99.90;;;;;;5010247;28;20804;-75
2023/09/02 06:23:37;;;;;;;6.72;2.33;;;24.40;99.90;;;;;;5026080;28;20476;-75
2023/09/02 06:26:03;;;;;;;6.80;2.83;;;24.50;99.90;;;;;;5030579;28;20411;-75
2023/09/02 06:28:29;;;;;;;8.20;2.50;;;25.40;21.50;;;;;;5030381;28;20401;-75
2023/09/02 06:30:55;;;;;;;7.10;2.30;;;26.00;1.00;;;;;;5030266;28;20470;-75
2023/09/02 06:33:23;;;;;;;6.20;2.10;;;26.50;1.00;;;;;;5030859;28;20387;-75
2023/09/02 06:35:49;;;;;;;6.40;2.30;;;27.20;1.00;;;;;;5030595;28;20391;-75
2023/09/02 06:38:15;;;;;;;6.70;2.17;;;27.70;1.00;;;;;;5032509;28;20403;-76
2023/09/02 06:40:41;;;;;;;7.65;2.10;;;27.60;1.00;;;;;;5014628;28;20420;-76
2023/09/02 06:43:06;;;;;;;7.53;2.15;;;27.90;1.00;;;;;;5010581;28;20486;-75
2023/09/02 06:45:32;;;;;;;6.20;1.90;;;28.30;1.00;;;;;;5009639;28;20408;-73
2023/09/02 06:47:57;;;;;;;7.50;2.10;;;29.20;1.00;;;;;;5009733;28;20400;-73
2023/09/02 06:50:23;;;;;;;7.07;1.97;;;29.50;1.00;;;;;;5010282;28;20396;-74
2023/09/02 06:52:51;;;;;;;8.05;2.30;;;30.00;1.00;;;;;;5010497;28;20498;-73
2023/09/02 06:55:16;;;;;;;6.60;1.90;;;30.10;1.00;;;;;;5010064;28;20873;-73
2023/09/02 06:57:42;;;;;;;6.90;1.83;;;30.30;1.00;;;;;;5010120;28;20396;-74
2023/09/02 07:00:08;;;;;;;5.80;1.60;;;30.50;1.00;;;;;;5010347;28;20967;-74
2023/09/02 07:02:34;;;;;;;6.45;1.90;;;30.50;1.00;;;;;;5010090;28;20512;-74
2023/09/02 07:05:00;;;;;;;8.00;2.25;;;30.50;1.00;;;;;;4992488;28;20427;-74
2023/09/02 07:07:25;;;;;;;7.00;1.80;;;30.20;1.00;;;;;;5009983;28;20388;-75
2023/09/02 07:09:51;;;;;;;7.90;1.80;;;30.10;1.00;;;;;;5010194;28;20385;-74
2023/09/02 07:12:16;;;;;;;8.70;2.10;;;29.70;99.90;;;;;;5009776;28;20466;-74
2023/09/02 07:14:42;;;;;;;8.00;1.83;;;29.50;1.00;;;;;;5024603;28;20399;-74
2023/09/02 07:17:07;;;;;;;6.40;2.10;;;30.20;99.90;;;;;;5029272;28;20470;-74
2023/09/02 07:19:33;;;;;;;6.78;2.08;;;29.40;99.90;;;;;;5029046;28;20453;-74
2023/09/02 07:21:59;;;;;;;7.77;2.10;;;29.80;99.90;;;;;;5022868;28;20445;-74
2023/09/02 07:24:24;;;;;;;5.80;1.50;;;30.50;99.90;;;;;;5010743;28;20461;-74
2023/09/02 07:26:50;;;;;;;6.90;1.80;;;31.10;99.90;;;;;;5029787;28;20427;-75
2023/09/02 07:29:15;;;;;;;6.25;1.70;;;32.30;99.90;;;;;;5028715;28;20907;-74
2023/09/02 07:31:41;;;;;;;5.90;1.80;;;33.00;99.90;;;;;;5029127;28;20399;-74
2023/09/02 07:34:06;;;;;;;7.77;2.10;;;32.90;99.90;;;;;;5028952;28;20447;-75
2023/09/02 07:36:32;;;;;;;6.95;1.70;;;32.20;99.90;;;;;;5029224;28;20379;-75
2023/09/02 07:38:58;;;;;;;5.60;1.90;;;32.80;99.90;;;;;;5027506;28;20425;-75
2023/09/02 07:41:23;;;;;;;6.53;1.60;;;32.10;99.90;;;;;;5028859;28;20775;-76
2023/09/02 07:43:49;;;;;;;5.70;1.52;;;31.90;99.90;;;;;;5029610;28;20419;-76
2023/09/02 07:46:14;;;;;;;6.60;1.80;;;31.00;99.90;;;;;;5028227;28;20760;-76
2023/09/02 07:48:40;;;;;;;6.10;1.77;;;30.90;99.90;;;;;;5029987;28;20375;-77
2023/09/02 07:51:05;;;;;;;6.00;1.73;;;32.00;99.90;;;;;;5028767;28;20399;-77
2023/09/02 07:53:31;;;;;;;6.70;2.10;;;33.00;99.90;;;;;;5028786;28;20411;-77
2023/09/02 07:55:56;;;;;;;7.40;1.60;;;33.30;99.90;;;;;;5014089;28;20925;-76
2023/09/02 07:58:22;;;;;;;6.50;2.00;;;33.20;99.90;;;;;;5009576;28;20439;-77
2023/09/02 08:00:47;;;;;;;10.90;1.80;;;32.70;99.90;;;;;;5008934;28;20393;-76
2023/09/02 08:03:13;;;;;;;6.60;1.80;;;32.60;99.90;;;;;;5008410;28;20499;-77
2023/09/02 08:05:39;;;;;;;6.10;1.63;;;32.80;99.90;;;;;;5009965;28;20385;-77
2023/09/02 08:08:05;;;;;;;6.50;1.70;;;32.20;99.90;;;;;;5009222;28;20397;-77
2023/09/02 08:10:31;;;;;;;7.75;1.70;;;32.30;99.90;;;;;;5009723;28;20471;-77
2023/09/02 08:12:56;;;;;;;5.60;1.60;;;32.20;99.90;;;;;;4992012;28;20473;-79
2023/09/02 08:15:22;;;;;;;5.97;1.70;;;32.80;99.90;;;;;;5012635;28;20416;-78
2023/09/02 08:17:47;;;;;;;6.72;1.73;;;33.80;99.90;;;;;;5026093;28;20361;-78
2023/09/02 08:20:14;;;;;;;6.00;1.67;;;33.90;99.90;;;;;;5028767;28;20401;-79
2023/09/02 08:22:42;;;;;;;6.15;1.70;;;33.70;99.90;;;;;;5016758;28;20408;-78
2023/09/02 08:25:08;;;;;;;6.00;1.77;;;34.30;99.90;;;;;;5009741;28;20403;-78
2023/09/02 08:27:34;;;;;;;5.97;1.50;;;33.50;99.90;;;;;;5010636;28;20389;-78
2023/09/02 08:29:59;;;;;;;6.20;1.90;;;32.90;99.90;;;;;;5016171;28;20388;-79
2023/09/02 08:32:25;;;;;;;7.50;1.80;;;32.80;99.90;;;;;;5010686;28;20475;-75
2023/09/02 08:34:51;;;;;;;5.70;1.50;;;32.90;99.90;;;;;;5009373;28;20392;-75
2023/09/02 08:37:16;;;;;;;5.85;1.40;;;33.10;99.90;;;;;;5008864;28;20384;-75
2023/09/02 08:39:42;;;;;;;5.57;1.40;;;33.50;99.90;;;;;;5008730;28;20417;-75
2023/09/02 08:42:09;;;;;;;6.00;1.70;;;33.80;99.90;;;;;;5012410;28;20456;-75
2023/09/02 08:44:35;;;;;;;6.13;1.90;;;34.90;99.90;;;;;;5012573;28;20417;-75
2023/09/02 08:47:02;;;;;;;6.40;1.80;;;34.20;99.90;;;;;;5012294;28;20400;-75
2023/09/02 08:49:29;;;;;;;7.80;1.90;;;33.80;99.90;;;;;;5012232;28;20408;-75
2023/09/02 08:51:55;;;;;;;8.95;1.83;;;34.10;99.90;;;;;;5012190;28;20389;-76
2023/09/02 08:54:21;;;;;;;6.13;1.55;;;34.90;99.90;;;;;;5012389;28;20408;-75
2023/09/02 08:56:49;;;;;;;5.53;1.60;;;35.50;99.90;;;;;;5011861;28;20492;-76
2023/09/02 08:59:15;;;;;;;6.50;1.73;;;35.60;99.90;;;;;;4993581;28;20439;-75
2023/09/02 09:01:46;;;;;;;6.07;1.63;;;35.00;99.90;;;;;;5011338;28;20976;-75
2023/09/02 09:04:15;;;;;;;6.20;1.70;;;34.90;99.90;;;;;;5011851;28;20452;-75
2023/09/02 09:06:42;;;;;;;6.78;1.50;;;34.90;99.90;;;;;;5011555;28;20381;-76
2023/09/02 09:09:09;;;;;;;6.33;2.20;;;34.60;99.90;;;;;;5011467;28;20384;-76
2023/09/02 09:11:42;;;;;;;5.80;1.60;;;;;;;;;;5011436;28;20392;-76
2023/09/02 09:14:22;;;;;;;7.00;2.00;;;35.90;99.90;;;;;;5011301;28;20897;-76
2023/09/02 09:16:51;;;;;;;6.63;1.50;;;36.90;99.90;;;;;;5011172;28;20393;-76
2023/09/02 09:19:17;;;;;;;7.38;2.10;;;37.90;99.90;;;;;;5011015;28;20389;-76
2023/09/02 09:21:44;;;;;;;5.53;1.40;;;38.30;99.90;;;;;;5011244;28;20741;-75
2023/09/02 09:24:12;;;;;;;5.75;1.50;;;37.30;99.90;;;;;;5011461;28;20425;-76
2023/09/02 09:26:41;;;;;;;5.93;1.63;;;36.70;99.90;;;;;;5011227;28;20908;-76
2023/09/02 09:29:18;;;;;;;6.30;2.10;;;35.80;99.90;;;;;;5011015;28;20396;-76
2023/09/02 09:31:43;;;;;;;7.75;1.90;;;35.80;99.90;;;;;;5011354;28;20455;-76
2023/09/02 09:34:10;;;;;;;7.13;1.90;;;36.60;99.90;;;;;;5010874;28;20758;-76
2023/09/02 09:36:35;;;;;;;6.70;2.00;;;37.00;99.90;;;;;;5010974;28;20392;-76
2023/09/02 09:39:02;;;;;;;6.60;1.80;;;;;;;;;;5010582;28;20424;-76
2023/09/02 09:41:28;;;;;;;6.90;1.90;;;;;;;;;;5010941;28;20707;-75
2023/09/02 09:44:16;;;;;;;5.75;1.75;;;37.80;99.90;;;;;;5010366;28;20450;-76
2023/09/02 09:46:51;;;;;;;5.97;1.70;;;37.70;99.90;;;;;;5010600;28;20893;-76
2023/09/02 09:49:23;;;;;;;6.03;1.53;;;37.80;99.90;;;;;;5011112;28;20389;-76
2023/09/02 09:52:08;;;;;;;5.65;1.58;;;38.50;99.90;;;;;;5010688;28;20389;-76
2023/09/02 09:54:39;;;;;;;5.88;1.40;;;38.90;99.90;;;;;;5010785;28;20420;-76
2023/09/02 09:57:10;;;;;;;5.60;1.38;;;38.60;99.90;;;;;;5010702;28;20391;-75
2023/09/02 09:59:36;;;;;;;6.15;1.63;;;39.10;99.90;;;;;;4994040;28;20424;-76
2023/09/02 10:02:05;;;;;;;6.70;2.00;;;38.30;99.90;;;;;;5011365;28;20405;-76
2023/09/02 10:04:31;;;;;;;6.47;1.60;;;37.30;99.90;;;;;;5010895;28;20901;-77
2023/09/02 10:06:58;;;;;;;5.60;1.40;;;36.60;99.90;;;;;;5010453;28;20939;-76
2023/09/02 10:09:24;;;;;;;5.78;1.40;;;36.60;99.90;;;;;;5010245;28;20782;-76
2023/09/02 10:11:49;;;;;;;6.50;1.80;;;36.70;99.90;;;;;;5011023;28;20400;-76
2023/09/02 10:14:17;;;;;;;5.80;1.50;;;36.40;99.90;;;;;;5009875;28;20897;-75
2023/09/02 10:16:44;;;;;;;6.15;1.92;;;37.00;99.90;;;;;;5011167;28;20393;-75
2023/09/02 10:19:11;;;;;;;5.60;1.40;;;37.30;99.90;;;;;;5010463;28;20434;-75
2023/09/02 10:21:39;;;;;;;6.10;1.70;;;37.30;99.90;;;;;;5010084;28;20771;-75
2023/09/02 10:24:09;;;;;;;8.57;1.60;;;37.40;99.90;;;;;;5010007;28;20438;-75
2023/09/02 10:26:48;;;;;;;6.35;1.40;;;37.60;99.90;;;;;;5010280;28;20806;-75
2023/09/02 10:29:18;;;;;;;5.50;1.33;;;37.30;99.90;;;;;;5017690;28;20395;-75
2023/09/02 10:31:48;;;;;;;5.90;1.50;;;36.70;99.90;;;;;;5030477;28;20443;-75
2023/09/02 10:34:34;;;;;;;6.45;1.50;;;36.60;99.90;;;;;;5030365;28;20394;-75
2023/09/02 10:37:04;;;;;;;5.63;1.40;;;36.80;99.90;;;;;;5018959;28;20403;-75
2023/09/02 10:40:07;;;;;;;5.55;1.35;;;35.80;99.90;;;;;;5029524;28;20930;-75
2023/09/02 10:42:35;;;;;;;6.50;1.80;;;35.00;99.90;;;;;;5028843;28;20485;-75
2023/09/02 10:45:00;;;;;;;7.55;1.63;;;34.60;99.90;;;;;;5012252;28;20457;-75
2023/09/02 10:47:26;;;;;;;4.90;0.98;;;34.10;99.90;;;;;;5029829;28;20860;-75
2023/09/02 10:49:54;;;;;;;6.57;1.30;;;33.60;99.90;;;;;;5030908;28;20758;-74
2023/09/02 10:52:19;;;;;;;5.95;1.65;;;32.70;99.90;;;;;;5030271;28;20418;-75
2023/09/02 10:55:01;;;;;;;6.05;1.55;;;32.70;99.90;;;;;;5029700;28;20411;-75
2023/09/02 10:57:28;;;;;;;5.50;1.38;;;32.30;99.90;;;;;;5030169;28;20514;-75
2023/09/02 11:00:18;;;;;;;6.28;1.60;;;32.40;99.90;;;;;;5030571;28;20415;-75
2023/09/02 11:02:45;;;;;;;6.05;1.50;;;32.60;99.90;;;;;;5028512;28;20411;-75
2023/09/02 11:05:11;;;;;;;6.00;1.52;;;32.90;99.90;;;;;;5029983;28;20387;-75
2023/09/02 11:07:39;;;;;;;6.33;1.33;;;33.30;99.90;;;;;;5030018;28;20386;-75
2023/09/02 11:10:09;;;;;;;6.13;1.13;;;33.60;99.90;;;;;;5031458;28;20406;-75
2023/09/02 11:12:55;;;;;;;5.47;1.27;;;33.50;99.90;;;;;;5030993;28;20462;-75
2023/09/02 11:15:20;;;;;;;5.53;1.27;;;33.40;99.90;;;;;;5031324;28;20395;-75
2023/09/02 11:17:46;;;;;;;5.00;1.30;;;33.50;99.90;;;;;;5031061;28;20402;-75
2023/09/02 11:20:13;;;;;;;6.97;1.40;;;33.50;99.90;;;;;;5029921;28;20483;-74
2023/09/02 11:22:51;;;;;;;5.50;1.40;;;33.30;99.90;;;;;;5028532;28;20909;-74
2023/09/02 11:25:30;;;;;;;5.63;1.10;;;33.50;99.90;;;;;;5029139;28;20415;-74
2023/09/02 11:27:57;;;;;;;5.25;1.00;;;33.30;99.90;;;;;;5029212;28;20387;-74
2023/09/02 11:30:24;;;;;;;5.70;1.30;;;32.70;99.90;;;;;;5029728;28;20519;-75
2023/09/02 11:32:50;;;;;;;5.47;1.23;;;31.70;99.90;;;;;;5029961;28;20908;-74
2023/09/02 11:35:32;;;;;;;5.10;1.10;;;31.50;99.90;;;;;;5029066;28;20954;-74
2023/09/02 11:37:58;;;;;;;5.20;1.00;;;31.50;99.90;;;;;;5029108;28;20401;-74
2023/09/02 11:40:25;;;;;;;5.00;1.10;;;31.70;99.90;;;;;;5028838;28;20443;-74
2023/09/02 11:42:54;;;;;;;5.35;1.10;;;31.30;99.90;;;;;;5029329;28;20588;-74
2023/09/02 11:45:22;;;;;;;5.80;0.80;;;31.10;99.90;;;;;;5029605;28;20433;-74
2023/09/02 11:47:49;;;;;;;6.90;1.60;;;31.20;99.90;;;;;;5028980;28;20383;-75
2023/09/02 11:50:17;;;;;;;5.80;1.38;;;31.30;99.90;;;;;;5029075;28;20403;-74
2023/09/02 11:52:43;;;;;;;5.70;1.20;;;31.60;99.90;;;;;;5029020;28;20529;-74
2023/09/02 11:55:16;;;;;;;5.20;1.10;;;31.60;99.90;;;;;;5028792;28;20883;-74
2023/09/02 11:57:42;;;;;;;5.20;1.20;;;31.50;99.90;;;;;;5029001;28;20467;-74
2023/09/02 12:00:13;;;;;;;5.80;1.40;;;31.60;99.90;;;;;;5029230;28;20403;-74
2023/09/02 12:02:38;;;;;;;6.43;1.00;;;31.50;99.90;;;;;;5029715;28;20391;-74
2023/09/02 12:05:04;;;;;;;5.60;1.20;;;31.20;99.90;;;;;;5029377;28;20426;-74
2023/09/02 12:07:32;;;;;;;5.70;1.10;;;31.40;99.90;;;;;;5028898;28;20490;-74
2023/09/02 12:10:05;;;;;;;5.90;1.60;;;31.70;99.90;;;;;;5028643;28;20387;-74
2023/09/02 12:12:31;;;;;;;6.50;1.57;;;31.70;99.90;;;;;;5017578;28;20402;-74
2023/09/02 12:14:57;;;;;;;5.30;1.40;;;31.60;99.90;;;;;;5000823;28;20387;-74
2023/09/02 12:17:23;;;;;;;5.37;1.30;;;31.60;99.90;;;;;;4994114;28;20396;-74
2023/09/02 12:19:49;;;;;;;5.57;1.40;;;31.50;99.90;;;;;;5000009;28;20540;-74
2023/09/02 12:22:14;;;;;;;5.60;1.20;;;31.50;99.90;;;;;;5007397;28;20781;-73
2023/09/02 12:24:40;;;;;;;6.00;1.40;;;31.50;99.90;;;;;;4997658;28;20426;-73
2023/09/02 12:27:05;;;;;;;5.75;1.65;;;31.50;99.90;;;;;;4992853;28;20418;-72
2023/09/02 12:29:31;;;;;;;5.50;1.10;;;31.60;99.90;;;;;;5010663;28;20938;-73
2023/09/02 12:32:00;;;;;;;7.00;1.33;;;31.60;99.90;;;;;;5011926;28;20389;-73
2023/09/02 12:34:36;;;;;;;5.53;1.27;;;31.30;99.90;;;;;;5011541;28;20474;-76
2023/09/02 12:37:20;;;;;;;5.07;1.30;;;31.10;99.90;;;;;;5005094;28;20395;-76
2023/09/02 12:39:47;;;;;;;5.53;1.45;;;31.40;99.90;;;;;;5004142;28;20435;-77
2023/09/02 12:42:22;;;;;;;6.40;1.20;;;31.30;99.90;;;;;;5011318;28;20417;-77
2023/09/02 12:44:49;;;;;;;4.80;1.00;;;31.20;99.90;;;;;;4993775;28;20582;-77
2023/09/02 12:47:19;;;;;;;6.40;1.30;;;30.60;99.90;;;;;;5012236;28;20783;-76
2023/09/02 12:49:45;;;;;;;5.70;1.20;;;31.10;99.90;;;;;;5012263;28;20496;-77
2023/09/02 12:52:15;;;;;;;5.20;1.30;;;31.20;99.90;;;;;;5012202;28;20388;-77